createdAt,value
2017-11-10T00:00:02.723Z,1012.09
2017-11-10T00:01:02.744Z,1012.11
2017-11-10T00:02:02.749Z,1012.04
2017-11-10T00:03:02.775Z,1012.03
2017-11-10T00:04:02.792Z,1012.08
2017-11-10T00:05:02.809Z,1012.03
2017-11-10T00:06:02.828Z,1012.04
2017-11-10T00:07:02.838Z,1012.02
2017-11-10T00:08:02.852Z,1011.99
2017-11-10T00:09:02.863Z,1012.01
2017-11-10T00:10:02.887Z,1011.98
2017-11-10T00:11:02.937Z,1011.97
2017-11-10T00:12:02.925Z,1011.99
2017-11-10T00:13:02.936Z,1011.94
2017-11-10T00:14:02.944Z,1011.97
2017-11-10T00:15:02.968Z,1011.96
2017-11-10T00:16:02.990Z,1011.97
2017-11-10T00:17:02.998Z,1011.97
2017-11-10T00:18:03.271Z,1011.99
2017-11-10T00:19:03.026Z,1011.99
2017-11-10T00:20:03.080Z,1011.96
2017-11-10T00:21:03.058Z,1011.94
2017-11-10T00:22:03.091Z,1011.95
2017-11-10T00:23:03.101Z,1011.98
2017-11-10T00:24:03.112Z,1011.97
2017-11-10T00:25:03.133Z,1011.95
2017-11-10T00:26:03.139Z,1011.94
2017-11-10T00:27:03.162Z,1012.00
2017-11-10T00:28:03.186Z,1011.99
2017-11-10T00:29:03.190Z,1012.05
2017-11-10T00:30:03.215Z,1012.04
2017-11-10T00:31:03.226Z,1012.02
2017-11-10T00:32:03.242Z,1012.03
2017-11-10T00:33:03.263Z,1011.99
2017-11-10T00:34:03.286Z,1011.98
2017-11-10T00:35:03.301Z,1012.00
2017-11-10T00:36:03.315Z,1012.03
2017-11-10T00:37:03.327Z,1012.02
2017-11-10T00:38:03.646Z,1012.00
2017-11-10T00:39:03.358Z,1012.04
2017-11-10T00:40:03.380Z,1012.02
2017-11-10T00:41:03.388Z,1012.04
2017-11-10T00:42:03.408Z,1012.03
2017-11-10T00:43:03.427Z,1012.03
2017-11-10T00:44:03.439Z,1012.03
2017-11-10T00:45:03.460Z,1012.09
2017-11-10T00:46:03.478Z,1012.05
2017-11-10T00:47:03.487Z,1012.08
2017-11-10T00:48:03.511Z,1012.09
2017-11-10T00:49:03.519Z,1012.09
2017-11-10T00:50:03.543Z,1012.07
2017-11-10T00:51:03.560Z,1012.05
2017-11-10T00:52:03.577Z,1012.04
2017-11-10T00:53:03.603Z,1012.00
2017-11-10T00:54:03.611Z,1012.01
2017-11-10T00:55:03.624Z,1012.05
2017-11-10T00:56:03.645Z,1012.02
2017-11-10T00:57:03.666Z,1011.99
2017-11-10T00:58:03.672Z,1011.95
2017-11-10T00:59:03.694Z,1011.93
2017-11-10T01:00:03.706Z,1011.88
2017-11-10T01:01:03.734Z,1011.88
2017-11-10T01:02:03.738Z,1011.83
2017-11-10T01:03:04.008Z,1011.85
2017-11-10T01:04:03.777Z,1011.84
2017-11-10T01:05:03.786Z,1011.78
2017-11-10T01:06:03.810Z,1011.77
2017-11-10T01:07:03.818Z,1011.75
2017-11-10T01:08:03.837Z,1011.79
2017-11-10T01:09:03.860Z,1011.82
2017-11-10T01:10:03.871Z,1011.77
2017-11-10T01:11:03.891Z,1011.75
2017-11-10T01:12:03.902Z,1011.75
2017-11-10T01:13:03.921Z,1011.77
2017-11-10T01:14:03.942Z,1011.75
2017-11-10T01:15:03.950Z,1011.73
2017-11-10T01:16:03.973Z,1011.74
2017-11-10T01:17:03.977Z,1011.69
2017-11-10T01:18:04.004Z,1011.73
2017-11-10T01:19:04.025Z,1011.74
2017-11-10T01:20:04.031Z,1011.71
2017-11-10T01:21:04.054Z,1011.72
2017-11-10T01:22:04.061Z,1011.69
2017-11-10T01:23:04.084Z,1011.70
2017-11-10T01:24:04.107Z,1011.66
2017-11-10T01:25:04.115Z,1011.66
2017-11-10T01:26:04.138Z,1011.66
2017-11-10T01:27:04.146Z,1011.68
2017-11-10T01:28:04.180Z,1011.61
2017-11-10T01:29:04.173Z,1011.65
2017-11-10T01:30:04.199Z,1011.61
2017-11-10T01:31:04.220Z,1011.58
2017-11-10T01:32:04.241Z,1011.58
2017-11-10T01:33:04.497Z,1011.60
2017-11-10T01:34:04.261Z,1011.59
2017-11-10T01:35:04.280Z,1011.57
2017-11-10T01:36:04.289Z,1011.54
2017-11-10T01:37:04.313Z,1011.56
2017-11-10T01:38:04.328Z,1011.58
2017-11-10T01:39:04.340Z,1011.54
2017-11-10T01:40:04.359Z,1011.52
2017-11-10T01:41:04.368Z,1011.50
2017-11-10T01:42:04.391Z,1011.52
2017-11-10T01:43:04.653Z,1011.48
2017-11-10T01:44:04.420Z,1011.48
2017-11-10T01:45:04.431Z,1011.47
2017-11-10T01:46:04.453Z,1011.45
2017-11-10T01:47:04.474Z,1011.42
2017-11-10T01:48:04.480Z,1011.41
2017-11-10T01:49:04.504Z,1011.36
2017-11-10T01:50:04.509Z,1011.33
2017-11-10T01:51:04.540Z,1011.36
2017-11-10T01:52:04.546Z,1011.29
2017-11-10T01:53:04.566Z,1011.33
2017-11-10T01:54:04.571Z,1011.31
2017-11-10T01:55:04.591Z,1011.28
2017-11-10T01:56:04.615Z,1011.29
2017-11-10T01:57:04.625Z,1011.22
2017-11-10T01:58:04.648Z,1011.25
2017-11-10T01:59:04.655Z,1011.18
2017-11-10T02:00:04.677Z,1011.15
2017-11-10T02:01:04.686Z,1011.13
2017-11-10T02:02:04.707Z,1011.11
2017-11-10T02:03:04.719Z,1011.06
2017-11-10T02:04:04.739Z,1011.03
2017-11-10T02:05:04.757Z,1011.02
2017-11-10T02:06:04.767Z,1010.99
2017-11-10T02:07:04.789Z,1010.97
2017-11-10T02:08:04.798Z,1010.97
2017-11-10T02:09:04.816Z,1010.92
2017-11-10T02:10:04.830Z,1010.94
2017-11-10T02:11:04.850Z,1010.95
2017-11-10T02:12:04.856Z,1010.95
2017-11-10T02:13:04.879Z,1010.91
2017-11-10T02:14:04.900Z,1010.89
2017-11-10T02:15:04.910Z,1010.90
2017-11-10T02:16:04.916Z,1010.89
2017-11-10T02:17:04.944Z,1010.91
2017-11-10T02:18:05.208Z,1010.96
2017-11-10T02:19:04.972Z,1010.91
2017-11-10T02:20:04.993Z,1010.89
2017-11-10T02:21:05.000Z,1010.84
2017-11-10T02:22:05.023Z,1010.89
2017-11-10T02:23:05.031Z,1010.85
2017-11-10T02:24:05.054Z,1010.80
2017-11-10T02:25:05.062Z,1010.76
2017-11-10T02:26:05.083Z,1010.69
2017-11-10T02:27:05.089Z,1010.75
2017-11-10T02:28:05.111Z,1010.69
2017-11-10T02:29:05.124Z,1010.71
2017-11-10T02:30:05.150Z,1010.64
2017-11-10T02:31:05.153Z,1010.66
2017-11-10T02:32:05.170Z,1010.59
2017-11-10T02:33:05.182Z,1010.63
2017-11-10T02:34:05.205Z,1010.61
2017-11-10T02:35:05.228Z,1010.63
2017-11-10T02:36:05.232Z,1010.62
2017-11-10T02:37:05.256Z,1010.59
2017-11-10T02:38:05.564Z,1010.69
2017-11-10T02:39:05.285Z,1010.63
2017-11-10T02:40:05.296Z,1010.69
2017-11-10T02:41:05.316Z,1010.67
2017-11-10T02:42:05.339Z,1010.64
2017-11-10T02:43:05.347Z,1010.66
2017-11-10T02:44:05.356Z,1010.69
2017-11-10T02:45:05.377Z,1010.62
2017-11-10T02:46:05.388Z,1010.62
2017-11-10T02:47:05.404Z,1010.59
2017-11-10T02:48:05.430Z,1010.57
2017-11-10T02:49:05.434Z,1010.58
2017-11-10T02:50:05.448Z,1010.60
2017-11-10T02:51:05.468Z,1010.56
2017-11-10T02:52:05.489Z,1010.53
2017-11-10T02:53:05.498Z,1010.51
2017-11-10T02:54:05.517Z,1010.49
2017-11-10T02:55:05.523Z,1010.45
2017-11-10T02:56:05.549Z,1010.39
2017-11-10T02:57:05.560Z,1010.39
2017-11-10T02:58:05.827Z,1010.40
2017-11-10T02:59:05.586Z,1010.40
2017-11-10T03:00:05.612Z,1010.34
2017-11-10T03:01:05.619Z,1010.34
2017-11-10T03:02:05.637Z,1010.33
2017-11-10T03:03:05.659Z,1010.38
2017-11-10T03:04:05.668Z,1010.30
2017-11-10T03:05:05.677Z,1010.30
2017-11-10T03:06:05.698Z,1010.29
2017-11-10T03:07:05.709Z,1010.24
2017-11-10T03:08:05.727Z,1010.19
2017-11-10T03:09:05.748Z,1010.16
2017-11-10T03:10:05.767Z,1010.16
2017-11-10T03:11:05.783Z,1010.12
2017-11-10T03:12:05.791Z,1010.06
2017-11-10T03:13:05.808Z,1010.10
2017-11-10T03:14:05.822Z,1010.07
2017-11-10T03:15:05.841Z,1010.09
2017-11-10T03:16:05.853Z,1010.02
2017-11-10T03:17:05.872Z,1010.04
2017-11-10T03:18:06.133Z,1010.00
2017-11-10T03:19:05.904Z,1009.95
2017-11-10T03:20:05.909Z,1009.97
2017-11-10T03:21:05.949Z,1009.93
2017-11-10T03:22:05.939Z,1009.89
2017-11-10T03:23:05.964Z,1009.92
2017-11-10T03:24:05.971Z,1009.92
2017-11-10T03:25:05.994Z,1009.91
2017-11-10T03:26:06.013Z,1009.88
2017-11-10T03:27:06.026Z,1009.88
2017-11-10T03:28:06.044Z,1009.90
2017-11-10T03:29:06.051Z,1009.93
2017-11-10T03:30:06.077Z,1009.94
2017-11-10T03:31:06.083Z,1009.93
2017-11-10T03:32:06.104Z,1009.98
2017-11-10T03:33:06.116Z,1009.97
2017-11-10T03:34:06.136Z,1009.96
2017-11-10T03:35:06.143Z,1009.94
2017-11-10T03:36:06.164Z,1009.95
2017-11-10T03:37:06.172Z,1009.97
2017-11-10T03:38:06.193Z,1009.95
2017-11-10T03:39:06.206Z,1009.96
2017-11-10T03:40:06.228Z,1009.92
2017-11-10T03:41:06.234Z,1009.91
2017-11-10T03:42:06.256Z,1009.90
2017-11-10T03:43:06.526Z,1009.90
2017-11-10T03:44:06.288Z,1009.94
2017-11-10T03:45:06.305Z,1009.91
2017-11-10T03:46:06.318Z,1009.89
2017-11-10T03:47:06.336Z,1009.88
2017-11-10T03:48:06.356Z,1009.85
2017-11-10T03:49:06.370Z,1009.83
2017-11-10T03:50:06.376Z,1009.79
2017-11-10T03:51:06.397Z,1009.80
2017-11-10T03:52:06.421Z,1009.77
2017-11-10T03:53:06.430Z,1009.74
2017-11-10T03:54:06.439Z,1009.76
2017-11-10T03:55:06.456Z,1009.74
2017-11-10T03:56:06.474Z,1009.69
2017-11-10T03:57:06.487Z,1009.69
2017-11-10T03:58:06.797Z,1009.69
2017-11-10T03:59:06.527Z,1009.69
2017-11-10T04:00:06.529Z,1009.69
2017-11-10T04:01:06.549Z,1009.73
2017-11-10T04:02:06.558Z,1009.72
2017-11-10T04:03:06.578Z,1009.72
2017-11-10T04:04:06.601Z,1009.73
2017-11-10T04:05:06.610Z,1009.71
2017-11-10T04:06:06.638Z,1009.75
2017-11-10T04:07:06.641Z,1009.75
2017-11-10T04:08:06.913Z,1009.77
2017-11-10T04:09:06.673Z,1009.74
2017-11-10T04:10:06.694Z,1009.74
2017-11-10T04:11:06.703Z,1009.68
2017-11-10T04:12:06.724Z,1009.68
2017-11-10T04:13:06.738Z,1009.74
2017-11-10T04:14:06.752Z,1009.73
2017-11-10T04:15:06.781Z,1009.69
2017-11-10T04:16:06.781Z,1009.68
2017-11-10T04:17:06.791Z,1009.71
2017-11-10T04:18:06.812Z,1009.70
2017-11-10T04:19:06.833Z,1009.70
2017-11-10T04:20:06.845Z,1009.69
2017-11-10T04:21:06.865Z,1009.67
2017-11-10T04:22:06.875Z,1009.73
2017-11-10T04:23:07.145Z,1009.76
2017-11-10T04:24:06.906Z,1009.66
2017-11-10T04:25:06.928Z,1009.68
2017-11-10T04:26:06.933Z,1009.65
2017-11-10T04:27:06.959Z,1009.60
2017-11-10T04:28:06.962Z,1009.57
2017-11-10T04:29:06.989Z,1009.56
2017-11-10T04:30:06.998Z,1009.50
2017-11-10T04:31:07.016Z,1009.55
2017-11-10T04:32:07.027Z,1009.52
2017-11-10T04:33:07.049Z,1009.51
2017-11-10T04:34:07.064Z,1009.45
2017-11-10T04:35:07.080Z,1009.39
2017-11-10T04:36:07.097Z,1009.37
2017-11-10T04:37:07.120Z,1009.33
2017-11-10T04:38:07.129Z,1009.34
2017-11-10T04:39:07.136Z,1009.28
2017-11-10T04:40:07.158Z,1009.36
2017-11-10T04:41:07.171Z,1009.43
2017-11-10T04:42:07.190Z,1009.47
2017-11-10T04:43:07.196Z,1009.48
2017-11-10T04:44:07.224Z,1009.48
2017-11-10T04:45:07.229Z,1009.51
2017-11-10T04:46:07.250Z,1009.54
2017-11-10T04:47:07.261Z,1009.54
2017-11-10T04:48:07.278Z,1009.55
2017-11-10T04:49:07.292Z,1009.55
2017-11-10T04:50:07.309Z,1009.51
2017-11-10T04:51:07.329Z,1009.49
2017-11-10T04:52:07.340Z,1009.51
2017-11-10T04:53:07.614Z,1009.49
2017-11-10T04:54:07.373Z,1009.51
2017-11-10T04:55:07.403Z,1009.49
2017-11-10T04:56:07.400Z,1009.43
2017-11-10T04:57:07.421Z,1009.45
2017-11-10T04:58:07.432Z,1009.49
2017-11-10T04:59:07.466Z,1009.48
2017-11-10T05:00:07.460Z,1009.55
2017-11-10T05:01:07.485Z,1009.49
2017-11-10T05:02:07.495Z,1009.49
2017-11-10T05:03:07.510Z,1009.48
2017-11-10T05:04:07.529Z,1009.53
2017-11-10T05:05:07.544Z,1009.45
2017-11-10T05:06:07.551Z,1009.50
2017-11-10T05:07:07.571Z,1009.46
2017-11-10T05:08:07.592Z,1009.42
2017-11-10T05:09:07.605Z,1009.43
2017-11-10T05:10:07.625Z,1009.41
2017-11-10T05:11:07.636Z,1009.39
2017-11-10T05:12:07.652Z,1009.44
2017-11-10T05:13:07.665Z,1009.42
2017-11-10T05:14:07.684Z,1009.44
2017-11-10T05:15:07.693Z,1009.44
2017-11-10T05:16:07.717Z,1009.43
2017-11-10T05:17:07.726Z,1009.43
2017-11-10T05:18:07.745Z,1009.40
2017-11-10T05:19:07.760Z,1009.39
2017-11-10T05:20:07.776Z,1009.39
2017-11-10T05:21:07.800Z,1009.37
2017-11-10T05:22:07.809Z,1009.33
2017-11-10T05:23:07.826Z,1009.25
2017-11-10T05:24:07.838Z,1009.30
2017-11-10T05:25:07.858Z,1009.33
2017-11-10T05:26:07.867Z,1009.26
2017-11-10T05:27:07.888Z,1009.28
2017-11-10T05:28:07.897Z,1009.25
2017-11-10T05:29:07.920Z,1009.26
2017-11-10T05:30:07.927Z,1009.28
2017-11-10T05:31:07.957Z,1009.24
2017-11-10T05:32:07.972Z,1009.28
2017-11-10T05:33:08.228Z,1009.32
2017-11-10T05:34:08.003Z,1009.28
2017-11-10T05:35:08.011Z,1009.28
2017-11-10T05:36:08.034Z,1009.32
2017-11-10T05:37:08.042Z,1009.36
2017-11-10T05:38:08.062Z,1009.34
2017-11-10T05:39:08.072Z,1009.34
2017-11-10T05:40:08.093Z,1009.27
2017-11-10T05:41:08.099Z,1009.28
2017-11-10T05:42:08.124Z,1009.31
2017-11-10T05:43:08.394Z,1009.33
2017-11-10T05:44:08.152Z,1009.30
2017-11-10T05:45:08.173Z,1009.32
2017-11-10T05:46:08.184Z,1009.33
2017-11-10T05:47:08.202Z,1009.32
2017-11-10T05:48:08.217Z,1009.35
2017-11-10T05:49:08.236Z,1009.36
2017-11-10T05:50:08.243Z,1009.31
2017-11-10T05:51:08.265Z,1009.35
2017-11-10T05:52:08.283Z,1009.36
2017-11-10T05:53:08.297Z,1009.31
2017-11-10T05:54:08.319Z,1009.31
2017-11-10T05:55:08.327Z,1009.28
2017-11-10T05:56:08.351Z,1009.28
2017-11-10T05:57:08.361Z,1009.23
2017-11-10T05:58:08.375Z,1009.28
2017-11-10T05:59:08.385Z,1009.27
2017-11-10T06:00:08.404Z,1009.31
2017-11-10T06:01:08.415Z,1009.30
2017-11-10T06:02:08.436Z,1009.30
2017-11-10T06:03:08.459Z,1009.37
2017-11-10T06:04:08.466Z,1009.34
2017-11-10T06:05:08.486Z,1009.34
2017-11-10T06:06:08.500Z,1009.29
2017-11-10T06:07:08.524Z,1009.30
2017-11-10T06:08:08.529Z,1009.27
2017-11-10T06:09:08.548Z,1009.29
2017-11-10T06:10:08.561Z,1009.27
2017-11-10T06:11:08.578Z,1009.30
2017-11-10T06:12:08.603Z,1009.22
2017-11-10T06:13:08.861Z,1009.23
2017-11-10T06:14:08.631Z,1009.24
2017-11-10T06:15:08.642Z,1009.23
2017-11-10T06:16:08.671Z,1009.20
2017-11-10T06:17:08.672Z,1009.14
2017-11-10T06:18:08.691Z,1009.12
2017-11-10T06:19:08.704Z,1009.12
2017-11-10T06:20:08.726Z,1009.07
2017-11-10T06:21:08.749Z,1009.09
2017-11-10T06:22:08.754Z,1009.07
2017-11-10T06:23:08.772Z,1009.06
2017-11-10T06:24:08.782Z,1009.06
2017-11-10T06:25:08.806Z,1009.11
2017-11-10T06:26:08.819Z,1009.12
2017-11-10T06:27:08.835Z,1009.10
2017-11-10T06:28:08.842Z,1009.07
2017-11-10T06:29:08.867Z,1009.07
2017-11-10T06:30:08.885Z,1009.07
2017-11-10T06:31:08.893Z,1009.01
2017-11-10T06:32:08.918Z,1009.02
2017-11-10T06:33:08.925Z,1008.99
2017-11-10T06:34:08.945Z,1009.01
2017-11-10T06:35:08.957Z,1008.99
2017-11-10T06:36:08.978Z,1009.00
2017-11-10T06:37:08.985Z,1008.96
2017-11-10T06:38:09.316Z,1008.94
2017-11-10T06:39:09.030Z,1008.90
2017-11-10T06:40:09.038Z,1008.93
2017-11-10T06:41:09.076Z,1008.86
2017-11-10T06:42:09.068Z,1008.87
2017-11-10T06:43:09.340Z,1008.88
2017-11-10T06:44:09.109Z,1008.88
2017-11-10T06:45:09.120Z,1008.90
2017-11-10T06:46:09.142Z,1008.89
2017-11-10T06:47:09.153Z,1008.83
2017-11-10T06:48:09.168Z,1008.85
2017-11-10T06:49:09.195Z,1008.86
2017-11-10T06:50:09.202Z,1008.87
2017-11-10T06:51:09.209Z,1008.89
2017-11-10T06:52:09.235Z,1008.83
2017-11-10T06:53:09.240Z,1008.87
2017-11-10T06:54:09.264Z,1008.83
2017-11-10T06:55:09.282Z,1008.88
2017-11-10T06:56:09.291Z,1008.83
2017-11-10T06:57:09.312Z,1008.84
2017-11-10T06:58:09.575Z,1008.84
2017-11-10T06:59:09.341Z,1008.82
2017-11-10T07:00:09.364Z,1008.79
2017-11-10T07:01:09.372Z,1008.79
2017-11-10T07:02:09.395Z,1008.78
2017-11-10T07:03:09.406Z,1008.78
2017-11-10T07:04:09.427Z,1008.81
2017-11-10T07:05:09.434Z,1008.81
2017-11-10T07:06:09.465Z,1008.83
2017-11-10T07:07:09.479Z,1008.76
2017-11-10T07:08:09.491Z,1008.75
2017-11-10T07:09:09.508Z,1008.75
2017-11-10T07:10:09.519Z,1008.70
2017-11-10T07:11:09.540Z,1008.72
2017-11-10T07:12:09.558Z,1008.74
2017-11-10T07:13:09.569Z,1008.68
2017-11-10T07:14:09.590Z,1008.74
2017-11-10T07:15:09.600Z,1008.68
2017-11-10T07:16:09.622Z,1008.70
2017-11-10T07:17:09.627Z,1008.69
2017-11-10T07:18:09.899Z,1008.66
2017-11-10T07:19:09.661Z,1008.65
2017-11-10T07:20:09.688Z,1008.62
2017-11-10T07:21:09.704Z,1008.60
2017-11-10T07:22:09.710Z,1008.61
2017-11-10T07:23:09.735Z,1008.61
2017-11-10T07:24:09.743Z,1008.57
2017-11-10T07:25:09.764Z,1008.62
2017-11-10T07:26:09.771Z,1008.66
2017-11-10T07:27:09.803Z,1008.61
2017-11-10T07:28:09.812Z,1008.63
2017-11-10T07:29:09.823Z,1008.65
2017-11-10T07:30:09.841Z,1008.57
2017-11-10T07:31:09.855Z,1008.59
2017-11-10T07:32:09.871Z,1008.58
2017-11-10T07:33:09.898Z,1008.53
2017-11-10T07:34:09.912Z,1008.57
2017-11-10T07:35:09.928Z,1008.53
2017-11-10T07:36:09.933Z,1008.48
2017-11-10T07:37:09.970Z,1008.48
2017-11-10T07:38:09.979Z,1008.45
2017-11-10T07:39:09.989Z,1008.42
2017-11-10T07:40:10.013Z,1008.41
2017-11-10T07:41:10.020Z,1008.44
2017-11-10T07:42:10.037Z,1008.39
2017-11-10T07:43:10.061Z,1008.41
2017-11-10T07:44:10.074Z,1008.39
2017-11-10T07:45:10.088Z,1008.39
2017-11-10T07:46:10.100Z,1008.33
2017-11-10T07:47:10.117Z,1008.33
2017-11-10T07:48:10.129Z,1008.31
2017-11-10T07:49:10.153Z,1008.28
2017-11-10T07:50:10.174Z,1008.27
2017-11-10T07:51:10.178Z,1008.31
2017-11-10T07:52:10.202Z,1008.31
2017-11-10T07:53:10.210Z,1008.28
2017-11-10T07:54:10.237Z,1008.27
2017-11-10T07:55:10.257Z,1008.25
2017-11-10T07:56:10.279Z,1008.26
2017-11-10T07:57:10.287Z,1008.27
2017-11-10T07:58:10.546Z,1008.25
2017-11-10T07:59:10.314Z,1008.23
2017-11-10T08:00:10.341Z,1008.21
2017-11-10T08:01:10.349Z,1008.21
2017-11-10T08:02:10.366Z,1008.23
2017-11-10T08:03:10.373Z,1008.21
2017-11-10T08:04:10.399Z,1008.23
2017-11-10T08:05:10.411Z,1008.23
2017-11-10T08:06:10.425Z,1008.19
2017-11-10T08:07:10.449Z,1008.23
2017-11-10T08:08:10.460Z,1008.23
2017-11-10T08:09:10.481Z,1008.19
2017-11-10T08:10:10.488Z,1008.17
2017-11-10T08:11:10.517Z,1008.12
2017-11-10T08:12:10.528Z,1008.11
2017-11-10T08:13:10.544Z,1008.09
2017-11-10T08:14:10.563Z,1008.09
2017-11-10T08:15:10.569Z,1008.06
2017-11-10T08:16:10.589Z,1008.07
2017-11-10T08:17:10.611Z,1008.05
2017-11-10T08:18:10.872Z,1008.01
2017-11-10T08:19:10.643Z,1007.99
2017-11-10T08:20:10.650Z,1007.95
2017-11-10T08:21:10.689Z,1007.92
2017-11-10T08:22:10.694Z,1007.90
2017-11-10T08:23:10.709Z,1007.90
2017-11-10T08:24:10.723Z,1007.89
2017-11-10T08:25:10.733Z,1007.86
2017-11-10T08:26:10.755Z,1007.86
2017-11-10T08:27:10.774Z,1007.85
2017-11-10T08:28:10.783Z,1007.84
2017-11-10T08:29:10.804Z,1007.82
2017-11-10T08:30:10.820Z,1007.80
2017-11-10T08:31:10.838Z,1007.80
2017-11-10T08:32:10.855Z,1007.80
2017-11-10T08:33:10.865Z,1007.76
2017-11-10T08:34:10.887Z,1007.75
2017-11-10T08:35:10.897Z,1007.73
2017-11-10T08:36:10.924Z,1007.72
2017-11-10T08:37:10.941Z,1007.65
2017-11-10T08:38:11.247Z,1007.64
2017-11-10T08:39:10.975Z,1007.60
2017-11-10T08:40:10.988Z,1007.59
2017-11-10T08:41:10.999Z,1007.58
2017-11-10T08:42:11.020Z,1007.55
2017-11-10T08:43:11.029Z,1007.49
2017-11-10T08:44:11.054Z,1007.49
2017-11-10T08:45:11.071Z,1007.45
2017-11-10T08:46:11.083Z,1007.41
2017-11-10T08:47:11.106Z,1007.37
2017-11-10T08:48:11.111Z,1007.29
2017-11-10T08:49:11.139Z,1007.27
2017-11-10T08:50:11.146Z,1007.25
2017-11-10T08:51:11.170Z,1007.20
2017-11-10T08:52:11.188Z,1007.25
2017-11-10T08:53:11.206Z,1007.17
2017-11-10T08:54:11.216Z,1007.19
2017-11-10T08:55:11.246Z,1007.16
2017-11-10T08:56:11.247Z,1007.16
2017-11-10T08:57:11.274Z,1007.18
2017-11-10T08:58:11.525Z,1007.18
2017-11-10T08:59:11.301Z,1007.15
2017-11-10T09:00:11.317Z,1007.10
2017-11-10T09:01:11.327Z,1007.14
2017-11-10T09:02:11.352Z,1007.08
2017-11-10T09:03:11.357Z,1007.07
2017-11-10T09:04:11.382Z,1007.00
2017-11-10T09:05:11.399Z,1006.97
2017-11-10T09:06:11.410Z,1006.97
2017-11-10T09:07:11.429Z,1006.98
2017-11-10T09:08:11.455Z,1006.91
2017-11-10T09:09:11.463Z,1006.90
2017-11-10T09:10:11.482Z,1006.82
2017-11-10T09:11:11.496Z,1006.81
2017-11-10T09:12:11.510Z,1006.79
2017-11-10T09:13:11.542Z,1006.82
2017-11-10T09:14:11.546Z,1006.78
2017-11-10T09:15:11.563Z,1006.77
2017-11-10T09:16:11.577Z,1006.72
2017-11-10T09:17:11.597Z,1006.76
2017-11-10T09:18:11.617Z,1006.73
2017-11-10T09:19:11.626Z,1006.72
2017-11-10T09:20:11.645Z,1006.72
2017-11-10T09:21:11.670Z,1006.68
2017-11-10T09:22:11.678Z,1006.71
2017-11-10T09:23:11.696Z,1006.75
2017-11-10T09:24:11.767Z,1006.73
2017-11-10T09:25:11.732Z,1006.69
2017-11-10T09:26:11.751Z,1006.72
2017-11-10T09:27:11.758Z,1006.70
2017-11-10T09:28:11.784Z,1006.66
2017-11-10T09:29:11.801Z,1006.64
2017-11-10T09:30:11.809Z,1006.61
2017-11-10T09:31:11.834Z,1006.59
2017-11-10T09:32:11.853Z,1006.60
2017-11-10T09:33:11.869Z,1006.62
2017-11-10T09:34:11.885Z,1006.59
2017-11-10T09:35:11.904Z,1006.59
2017-11-10T09:36:11.916Z,1006.62
2017-11-10T09:37:11.939Z,1006.61
2017-11-10T09:38:12.193Z,1006.65
2017-11-10T09:39:11.976Z,1006.64
2017-11-10T09:40:11.988Z,1006.67
2017-11-10T09:41:11.998Z,1006.59
2017-11-10T09:42:12.018Z,1006.59
2017-11-10T09:43:12.055Z,1006.62
2017-11-10T09:44:12.051Z,1006.59
2017-11-10T09:45:12.069Z,1006.60
2017-11-10T09:46:12.096Z,1006.57
2017-11-10T09:47:12.099Z,1006.57
2017-11-10T09:48:12.118Z,1006.58
2017-11-10T09:49:12.133Z,1006.52
2017-11-10T09:50:12.153Z,1006.53
2017-11-10T09:51:12.170Z,1006.56
2017-11-10T09:52:12.179Z,1006.52
2017-11-10T09:53:12.201Z,1006.51
2017-11-10T09:54:12.222Z,1006.49
2017-11-10T09:55:12.230Z,1006.47
2017-11-10T09:56:12.276Z,1006.48
2017-11-10T09:57:12.276Z,1006.45
2017-11-10T09:58:12.534Z,1006.42
2017-11-10T09:59:12.307Z,1006.43
2017-11-10T10:00:12.317Z,1006.40
2017-11-10T10:01:12.346Z,1006.41
2017-11-10T10:02:12.357Z,1006.35
2017-11-10T10:03:12.368Z,1006.35
2017-11-10T10:04:12.387Z,1006.30
2017-11-10T10:05:12.406Z,1006.28
2017-11-10T10:06:12.420Z,1006.33
2017-11-10T10:07:12.439Z,1006.28
2017-11-10T10:08:12.447Z,1006.28
2017-11-10T10:09:12.472Z,1006.23
2017-11-10T10:10:12.493Z,1006.17
2017-11-10T10:11:12.501Z,1006.22
2017-11-10T10:12:12.523Z,1006.17
2017-11-10T10:13:12.534Z,1006.14
2017-11-10T10:14:12.550Z,1006.14
2017-11-10T10:15:12.575Z,1006.09
2017-11-10T10:16:12.581Z,1006.12
2017-11-10T10:17:12.600Z,1006.05
2017-11-10T10:18:12.626Z,1006.02
2017-11-10T10:19:12.641Z,1005.98
2017-11-10T10:20:12.690Z,1005.95
2017-11-10T10:21:12.666Z,1005.93
2017-11-10T10:22:12.687Z,1005.94
2017-11-10T10:23:12.708Z,1005.88
2017-11-10T10:24:12.721Z,1005.92
2017-11-10T10:25:12.735Z,1005.91
2017-11-10T10:26:12.757Z,1005.92
2017-11-10T10:27:12.769Z,1005.87
2017-11-10T10:28:12.790Z,1005.88
2017-11-10T10:29:12.811Z,1005.84
2017-11-10T10:30:12.820Z,1005.85
2017-11-10T10:31:12.839Z,1005.81
2017-11-10T10:32:12.851Z,1005.83
2017-11-10T10:33:12.882Z,1005.84
2017-11-10T10:34:12.907Z,1005.79
2017-11-10T10:35:12.909Z,1005.67
2017-11-10T10:36:12.926Z,1005.73
2017-11-10T10:37:12.948Z,1005.75
2017-11-10T10:38:12.954Z,1005.62
2017-11-10T10:39:12.975Z,1005.64
2017-11-10T10:40:12.994Z,1005.63
2017-11-10T10:41:13.004Z,1005.59
2017-11-10T10:42:13.041Z,1005.56
2017-11-10T10:43:13.039Z,1005.51
2017-11-10T10:44:13.054Z,1005.51
2017-11-10T10:45:13.081Z,1005.51
2017-11-10T10:46:13.084Z,1005.45
2017-11-10T10:47:13.110Z,1005.47
2017-11-10T10:48:13.127Z,1005.39
2017-11-10T10:49:13.140Z,1005.36
2017-11-10T10:50:13.156Z,1005.40
2017-11-10T10:51:13.180Z,1005.30
2017-11-10T10:52:13.195Z,1005.25
2017-11-10T10:53:13.221Z,1005.25
2017-11-10T10:54:13.235Z,1005.17
2017-11-10T10:55:13.245Z,1005.15
2017-11-10T10:56:13.265Z,1005.18
2017-11-10T10:57:13.285Z,1005.17
2017-11-10T10:58:13.541Z,1005.12
2017-11-10T10:59:13.329Z,1005.13
2017-11-10T11:00:13.337Z,1005.17
2017-11-10T11:01:13.349Z,1005.11
2017-11-10T11:02:13.363Z,1005.01
2017-11-10T11:03:13.392Z,1005.06
2017-11-10T11:04:13.405Z,1005.03
2017-11-10T11:05:13.420Z,1004.98
2017-11-10T11:06:13.441Z,1004.96
2017-11-10T11:07:13.461Z,1004.90
2017-11-10T11:08:13.473Z,1004.90
2017-11-10T11:09:13.487Z,1004.90
2017-11-10T11:10:13.509Z,1004.82
2017-11-10T11:11:13.530Z,1004.77
2017-11-10T11:12:13.545Z,1004.80
2017-11-10T11:13:13.571Z,1004.67
2017-11-10T11:14:13.587Z,1004.76
2017-11-10T11:15:13.601Z,1004.71
2017-11-10T11:16:13.616Z,1004.71
2017-11-10T11:17:13.645Z,1004.71
2017-11-10T11:18:13.907Z,1004.71
2017-11-10T11:19:13.674Z,1004.69
2017-11-10T11:20:13.687Z,1004.65
2017-11-10T11:21:13.711Z,1004.60
2017-11-10T11:22:13.718Z,1004.56
2017-11-10T11:23:13.740Z,1004.55
2017-11-10T11:24:13.762Z,1004.53
2017-11-10T11:25:13.779Z,1004.52
2017-11-10T11:26:13.808Z,1004.49
2017-11-10T11:27:13.815Z,1004.46
2017-11-10T11:28:13.834Z,1004.48
2017-11-10T11:29:13.853Z,1004.42
2017-11-10T11:30:13.865Z,1004.44
2017-11-10T11:31:13.883Z,1004.46
2017-11-10T11:32:13.905Z,1004.40
2017-11-10T11:33:13.931Z,1004.33
2017-11-10T11:34:13.935Z,1004.26
2017-11-10T11:35:13.958Z,1004.28
2017-11-10T11:36:13.982Z,1004.25
2017-11-10T11:37:14.004Z,1004.21
2017-11-10T11:38:14.009Z,1004.19
2017-11-10T11:39:14.031Z,1004.19
2017-11-10T11:40:14.067Z,1004.08
2017-11-10T11:41:14.061Z,1004.16
2017-11-10T11:42:14.088Z,1004.14
2017-11-10T11:43:14.103Z,1004.13
2017-11-10T11:44:14.129Z,1004.15
2017-11-10T11:45:14.133Z,1004.14
2017-11-10T11:46:14.155Z,1004.11
2017-11-10T11:47:14.180Z,1004.11
2017-11-10T11:48:14.200Z,1004.07
2017-11-10T11:49:14.222Z,1004.08
2017-11-10T11:50:14.228Z,1004.08
2017-11-10T11:51:14.250Z,1004.02
2017-11-10T11:52:14.259Z,1003.98
2017-11-10T11:53:14.279Z,1003.99
2017-11-10T11:54:14.319Z,1003.95
2017-11-10T11:55:14.325Z,1003.90
2017-11-10T11:56:14.334Z,1003.85
2017-11-10T11:57:14.353Z,1003.81
2017-11-10T11:58:14.377Z,1003.87
2017-11-10T11:59:14.383Z,1003.89
2017-11-10T12:00:14.409Z,1003.89
2017-11-10T12:01:14.426Z,1003.73
2017-11-10T12:02:14.450Z,1003.78
2017-11-10T12:03:14.459Z,1003.78
2017-11-10T12:04:14.481Z,1003.78
2017-11-10T12:05:14.502Z,1003.71